createdAt,value
2019-06-07T00:00:38.049Z,15.83
2019-06-07T00:02:51.977Z,15.83
2019-06-07T00:05:20.729Z,9.10
2019-06-07T00:07:49.572Z,10.23
2019-06-07T00:10:35.234Z,9.97
2019-06-07T00:12:49.083Z,10.37
2019-06-07T00:15:26.922Z,10.87
2019-06-07T00:17:48.415Z,17.80
2019-06-07T00:20:23.270Z,11.10
2019-06-07T00:22:48.331Z,11.20
2019-06-07T00:25:23.768Z,12.60
2019-06-07T00:27:47.985Z,11.57
2019-06-07T00:30:40.007Z,11.27
2019-06-07T00:32:48.952Z,16.00
2019-06-07T00:35:21.044Z,13.50
2019-06-07T00:37:48.389Z,15.13
2019-06-07T00:40:30.913Z,14.70
2019-06-07T00:42:50.579Z,11.93
2019-06-07T00:45:22.402Z,11.40
2019-06-07T00:47:49.958Z,13.60
2019-06-07T00:50:21.024Z,13.40
2019-06-07T00:55:23.424Z,14.60
2019-06-07T00:57:50.872Z,15.40
2019-06-07T01:00:24.933Z,13.10
2019-06-07T01:02:50.883Z,14.20
2019-06-07T01:05:23.440Z,15.77
2019-06-07T01:07:50.161Z,18.70
2019-06-07T01:10:42.808Z,25.43
2019-06-07T01:12:50.071Z,16.63
2019-06-07T01:15:23.512Z,14.70
2019-06-07T01:18:33.072Z,14.80
2019-06-07T01:20:24.838Z,14.90
2019-06-07T01:22:53.886Z,14.00
2019-06-07T01:25:25.947Z,16.30
2019-06-07T01:27:53.233Z,15.37
2019-06-07T01:30:26.509Z,19.20
2019-06-07T01:32:54.403Z,13.70
2019-06-07T01:35:25.622Z,16.50
2019-06-07T01:37:54.537Z,16.23
2019-06-07T01:40:29.806Z,20.97
2019-06-07T01:42:54.052Z,15.73
2019-06-07T01:45:23.772Z,16.63
2019-06-07T01:47:53.108Z,15.80
2019-06-07T01:50:24.873Z,14.13
2019-06-07T01:52:52.440Z,19.67
2019-06-07T01:55:23.661Z,15.43
2019-06-07T01:57:52.534Z,15.73
2019-06-07T02:00:23.683Z,18.40
2019-06-07T02:02:52.259Z,17.00
2019-06-07T02:05:23.189Z,16.30
2019-06-07T02:07:51.642Z,16.73
2019-06-07T02:10:25.753Z,17.20
2019-06-07T02:12:51.645Z,17.23
2019-06-07T02:15:23.012Z,15.20
2019-06-07T02:17:51.310Z,21.00
2019-06-07T02:20:20.975Z,16.30
2019-06-07T02:22:50.781Z,16.30
2019-06-07T02:25:43.629Z,16.03
2019-06-07T02:27:50.164Z,17.30
2019-06-07T02:32:49.540Z,17.60
2019-06-07T02:35:22.501Z,17.70
2019-06-07T02:37:50.189Z,15.90
2019-06-07T02:40:19.568Z,17.10
2019-06-07T02:42:51.346Z,17.30
2019-06-07T02:45:20.217Z,19.87
2019-06-07T02:47:49.038Z,15.57
2019-06-07T02:50:18.404Z,18.53
2019-06-07T02:52:47.229Z,17.97
2019-06-07T02:55:16.224Z,15.83
2019-06-07T02:57:45.047Z,17.33
2019-06-07T03:00:42.379Z,15.93
2019-06-07T03:02:47.180Z,17.90
2019-06-07T03:05:16.031Z,17.00
2019-06-07T03:07:47.007Z,17.27
2019-06-07T03:10:17.166Z,18.17
2019-06-07T03:12:48.698Z,19.47
2019-06-07T03:15:32.734Z,19.30
2019-06-07T03:17:51.928Z,23.70
2019-06-07T03:20:22.701Z,17.50
2019-06-07T03:22:51.756Z,22.33
2019-06-07T03:25:20.789Z,19.03
2019-06-07T03:27:50.615Z,21.90
2019-06-07T03:30:42.825Z,22.67
2019-06-07T03:32:52.155Z,21.30
2019-06-07T03:35:20.820Z,23.73
2019-06-07T03:37:49.543Z,19.30
2019-06-07T03:40:18.287Z,23.77
2019-06-07T03:42:46.947Z,21.30
2019-06-07T03:45:15.725Z,20.43
2019-06-07T03:47:44.422Z,19.13
2019-06-07T03:50:13.737Z,22.13
2019-06-07T03:52:42.528Z,25.00
2019-06-07T03:55:11.832Z,17.63
2019-06-07T03:58:29.081Z,17.27
2019-06-07T04:00:12.308Z,16.50
2019-06-07T04:02:42.253Z,22.63
2019-06-07T04:05:11.485Z,14.27
2019-06-07T04:07:44.096Z,14.37
2019-06-07T04:10:11.100Z,17.57
2019-06-07T04:12:43.767Z,14.10
2019-06-07T04:15:10.520Z,12.93
2019-06-07T04:17:49.156Z,16.63
2019-06-07T04:20:10.391Z,13.77
2019-06-07T04:22:42.422Z,11.90
2019-06-07T04:25:11.564Z,15.43
2019-06-07T04:27:41.231Z,13.73
2019-06-07T04:30:10.902Z,12.00
2019-06-07T04:32:44.730Z,13.87
2019-06-07T04:35:10.755Z,11.80
2019-06-07T04:37:41.549Z,15.00
2019-06-07T04:40:14.885Z,12.73
2019-06-07T04:42:45.588Z,13.73
2019-06-07T04:45:33.080Z,11.90
2019-06-07T04:47:46.492Z,11.47
2019-06-07T04:50:15.780Z,12.53
2019-06-07T04:52:45.689Z,10.90
2019-06-07T04:55:14.733Z,17.63
2019-06-07T04:57:43.595Z,22.90
2019-06-07T05:00:46.591Z,12.33
2019-06-07T05:02:43.756Z,10.47
2019-06-07T05:05:13.096Z,11.90
2019-06-07T05:07:45.978Z,12.00
2019-06-07T05:10:12.497Z,17.70
2019-06-07T05:12:44.128Z,15.20
2019-06-07T05:15:11.878Z,15.03
2019-06-07T05:17:44.756Z,12.53
2019-06-07T05:20:11.487Z,23.53
2019-06-07T05:22:44.809Z,12.23
2019-06-07T05:25:11.207Z,13.73
2019-06-07T05:27:46.297Z,18.93
2019-06-07T05:30:36.432Z,9.07
2019-06-07T05:32:45.797Z,9.40
2019-06-07T05:35:14.549Z,8.77
2019-06-07T05:37:45.871Z,7.97
2019-06-07T05:40:16.662Z,10.37
2019-06-07T05:42:46.668Z,9.63
2019-06-07T05:45:18.623Z,9.03
2019-06-07T05:47:51.125Z,8.63
2019-06-07T05:50:38.587Z,9.93
2019-06-07T05:52:48.307Z,12.03
2019-06-07T05:55:17.334Z,11.00
2019-06-07T05:57:50.910Z,10.67
2019-06-07T06:00:17.029Z,9.90
2019-06-07T06:03:04.330Z,8.63
2019-06-07T06:05:32.661Z,11.50
2019-06-07T06:07:50.666Z,9.47
2019-06-07T06:10:17.930Z,10.67
2019-06-07T06:12:51.759Z,10.20
2019-06-07T06:15:17.809Z,8.53
2019-06-07T06:17:50.019Z,16.67
2019-06-07T06:20:18.470Z,9.63
2019-06-07T06:22:51.081Z,11.10
2019-06-07T06:25:34.402Z,10.13
2019-06-07T06:28:10.209Z,14.20
2019-06-07T06:30:19.898Z,7.50
2019-06-07T06:32:56.741Z,7.07
2019-06-07T06:35:19.421Z,15.33
2019-06-07T06:37:53.192Z,7.93
2019-06-07T06:40:22.394Z,6.87
2019-06-07T06:42:51.139Z,7.30
2019-06-07T06:45:20.880Z,6.90
2019-06-07T06:47:50.602Z,11.57
2019-06-07T06:50:20.930Z,7.60
2019-06-07T06:52:54.210Z,7.07
2019-06-07T06:55:20.434Z,10.03
2019-06-07T06:57:51.410Z,15.93
2019-06-07T07:00:42.825Z,6.83
2019-06-07T07:03:41.367Z,7.33
2019-06-07T07:05:23.590Z,11.43
2019-06-07T07:07:53.003Z,9.97
2019-06-07T07:10:24.774Z,7.80
2019-06-07T07:12:53.968Z,15.93
2019-06-07T07:15:23.028Z,8.23
2019-06-07T07:18:04.368Z,7.70
2019-06-07T07:20:22.295Z,17.30
2019-06-07T07:22:56.311Z,10.73
2019-06-07T07:25:21.583Z,15.03
2019-06-07T07:27:54.914Z,9.73
2019-06-07T07:30:36.827Z,9.93
2019-06-07T07:32:59.016Z,10.90
2019-06-07T07:35:24.581Z,10.47
2019-06-07T07:37:58.824Z,16.40
2019-06-07T07:42:56.674Z,11.07
2019-06-07T07:45:25.096Z,15.73
2019-06-07T07:48:08.326Z,22.00
2019-06-07T07:50:24.379Z,10.37
2019-06-07T07:52:55.991Z,14.57
2019-06-07T07:55:23.772Z,10.50
2019-06-07T07:58:00.909Z,9.17
2019-06-07T08:00:50.200Z,10.90
2019-06-07T08:02:58.616Z,9.70
2019-06-07T08:05:42.012Z,14.63
2019-06-07T08:08:00.372Z,9.07
2019-06-07T08:10:26.720Z,10.50
2019-06-07T08:13:19.532Z,14.80
2019-06-07T08:15:26.109Z,10.00
2019-06-07T08:17:59.775Z,9.87
2019-06-07T08:20:26.038Z,9.27
2019-06-07T08:22:58.842Z,14.03
2019-06-07T08:25:27.099Z,13.10
2019-06-07T08:27:57.211Z,7.90
2019-06-07T08:30:47.856Z,10.70
2019-06-07T08:33:12.051Z,13.90
2019-06-07T08:36:03.895Z,7.10
2019-06-07T08:38:26.698Z,6.97
2019-06-07T08:40:30.206Z,7.10
2019-06-07T08:43:15.472Z,6.53
2019-06-07T08:45:30.320Z,8.60
2019-06-07T08:48:05.405Z,13.50
2019-06-07T08:50:30.147Z,10.53
2019-06-07T08:53:10.607Z,7.53
2019-06-07T08:55:29.504Z,10.83
2019-06-07T08:58:04.245Z,7.80
2019-06-07T09:00:45.269Z,11.53
2019-06-07T09:03:05.207Z,14.33
2019-06-07T09:05:30.320Z,9.27
2019-06-07T09:08:21.040Z,13.67
2019-06-07T09:10:29.635Z,8.20
2019-06-07T09:13:03.153Z,13.87
2019-06-07T09:15:29.133Z,7.63
2019-06-07T09:20:37.000Z,7.20
2019-06-07T09:23:11.591Z,6.20
2019-06-07T09:25:32.214Z,6.40
2019-06-07T09:28:10.158Z,5.53
2019-06-07T09:30:34.311Z,5.73
2019-06-07T09:33:06.621Z,7.73
2019-06-07T09:35:33.652Z,7.50
2019-06-07T09:38:10.866Z,6.93
2019-06-07T09:40:33.417Z,9.03
2019-06-07T09:43:47.484Z,10.37
2019-06-07T09:45:32.838Z,8.73
2019-06-07T09:48:09.357Z,11.27
2019-06-07T09:50:32.192Z,11.63
2019-06-07T09:53:10.625Z,7.67
2019-06-07T09:55:31.467Z,7.80
2019-06-07T09:58:03.638Z,6.30
2019-06-07T10:00:40.706Z,5.87
2019-06-07T10:03:08.819Z,7.63
2019-06-07T10:05:32.866Z,5.37
2019-06-07T10:08:16.065Z,6.47
2019-06-07T10:10:37.839Z,5.53
2019-06-07T10:13:08.136Z,5.97
2019-06-07T10:15:37.712Z,4.80
2019-06-07T10:18:07.066Z,7.63
2019-06-07T10:20:36.031Z,4.00
2019-06-07T10:23:05.708Z,6.20
2019-06-07T10:25:34.679Z,5.33
2019-06-07T10:28:04.190Z,4.77
2019-06-07T10:30:32.951Z,4.90
2019-06-07T10:33:02.262Z,4.23
2019-06-07T10:35:31.245Z,3.83
2019-06-07T10:38:00.362Z,5.23
2019-06-07T10:40:29.265Z,4.17
2019-06-07T10:42:58.027Z,4.47
2019-06-07T10:45:26.790Z,4.50
2019-06-07T10:47:56.404Z,8.20
2019-06-07T10:50:25.163Z,4.30
2019-06-07T10:52:53.966Z,4.73
2019-06-07T10:55:22.751Z,4.03
2019-06-07T10:57:51.569Z,3.80
2019-06-07T11:00:20.930Z,4.50
2019-06-07T11:02:49.730Z,3.73
2019-06-07T11:05:19.479Z,3.50
2019-06-07T11:07:48.276Z,3.80
2019-06-07T11:10:19.958Z,3.50
2019-06-07T11:12:47.896Z,3.40
2019-06-07T11:15:17.323Z,7.17
2019-06-07T11:17:46.222Z,3.80
2019-06-07T11:20:15.968Z,8.13
2019-06-07T11:22:44.706Z,6.40
2019-06-07T11:25:14.711Z,4.27
2019-06-07T11:27:43.854Z,3.30
2019-06-07T11:30:14.572Z,3.40
2019-06-07T11:32:43.486Z,3.00
2019-06-07T11:35:13.978Z,6.20
2019-06-07T11:37:43.617Z,3.10
2019-06-07T11:40:35.706Z,4.10
2019-06-07T11:42:43.676Z,2.30
2019-06-07T11:45:14.884Z,2.80
2019-06-07T11:47:43.346Z,2.83
2019-06-07T11:50:13.734Z,2.50
2019-06-07T11:52:46.089Z,2.67
2019-06-07T11:55:15.623Z,3.00
2019-06-07T11:57:44.236Z,2.37
2019-06-07T12:00:16.476Z,7.73
2019-06-07T12:02:45.709Z,3.83
2019-06-07T12:05:18.385Z,2.80
2019-06-07T12:07:46.576Z,3.97
2019-06-07T12:10:20.518Z,3.73
2019-06-07T12:12:46.342Z,2.50
2019-06-07T12:15:15.367Z,2.80
2019-06-07T12:17:44.200Z,3.57
2019-06-07T12:20:15.280Z,2.23
2019-06-07T12:22:46.959Z,3.07
2019-06-07T12:25:20.679Z,2.03
2019-06-07T12:27:47.765Z,2.70
2019-06-07T12:30:24.313Z,1.97
2019-06-07T12:32:48.246Z,3.87
2019-06-07T12:35:17.941Z,6.70
2019-06-07T12:37:47.199Z,4.50
2019-06-07T12:40:27.688Z,2.30
2019-06-07T12:42:47.251Z,1.50
2019-06-07T12:45:36.673Z,2.53
2019-06-07T12:47:47.728Z,4.23
2019-06-07T12:50:17.472Z,5.63
2019-06-07T12:52:46.416Z,2.10
2019-06-07T12:55:16.065Z,2.83
2019-06-07T12:57:45.388Z,3.17
2019-06-07T13:00:16.015Z,1.77
2019-06-07T13:02:44.881Z,1.90
2019-06-07T13:05:15.258Z,1.97
2019-06-07T13:07:44.122Z,1.57
2019-06-07T13:10:15.573Z,2.03
2019-06-07T13:12:44.513Z,3.20
2019-06-07T13:15:17.680Z,1.93
2019-06-07T13:17:44.987Z,1.57
2019-06-07T13:20:14.490Z,6.40
2019-06-07T13:22:43.608Z,7.87
2019-06-07T13:25:13.221Z,1.67
2019-06-07T13:27:42.120Z,2.20
2019-06-07T13:30:13.102Z,1.70
2019-06-07T13:32:41.913Z,2.50
2019-06-07T13:35:11.222Z,1.17
2019-06-07T13:37:39.945Z,1.20
2019-06-07T13:40:09.329Z,2.80
2019-06-07T13:42:38.792Z,2.30
2019-06-07T13:45:08.239Z,2.60
2019-06-07T13:47:37.042Z,1.93
2019-06-07T13:50:08.206Z,1.37
2019-06-07T13:52:37.605Z,3.43
2019-06-07T13:55:07.462Z,2.60
2019-06-07T13:57:36.549Z,1.00
2019-06-07T14:00:10.663Z,1.40
2019-06-07T14:02:38.657Z,5.27
2019-06-07T14:05:08.418Z,2.90
2019-06-07T14:07:37.182Z,1.63
2019-06-07T14:10:11.371Z,1.23
2019-06-07T14:12:38.829Z,1.53
2019-06-07T14:15:09.096Z,3.10
2019-06-07T14:17:37.854Z,5.43
2019-06-07T14:20:08.948Z,1.20
2019-06-07T14:22:38.315Z,5.80
2019-06-07T14:25:09.162Z,1.30
2019-06-07T14:27:38.247Z,3.57
2019-06-07T14:30:10.009Z,5.63
2019-06-07T14:32:38.796Z,1.63
2019-06-07T14:35:08.067Z,5.27
2019-06-07T14:37:36.947Z,2.13
2019-06-07T14:40:09.409Z,1.90
2019-06-07T14:42:38.263Z,3.37
2019-06-07T14:45:08.560Z,1.60
2019-06-07T14:47:37.316Z,5.10
2019-06-07T14:50:07.847Z,1.73
2019-06-07T14:52:55.784Z,1.73
2019-06-07T14:55:25.140Z,1.47
2019-06-07T14:57:54.152Z,4.60
2019-06-07T15:00:43.561Z,3.83
2019-06-07T15:03:12.368Z,1.30
2019-06-07T15:05:41.326Z,5.63
2019-06-07T15:08:10.304Z,1.50
2019-06-07T15:10:39.469Z,8.47
2019-06-07T15:13:08.510Z,3.03
2019-06-07T15:15:38.940Z,1.20
2019-06-07T15:18:08.418Z,1.63
2019-06-07T15:20:38.420Z,1.30
2019-06-07T15:23:07.603Z,1.10
2019-06-07T15:25:36.397Z,1.00
2019-06-07T15:28:05.244Z,1.90
2019-06-07T15:30:34.095Z,3.50
2019-06-07T15:33:02.913Z,3.30
2019-06-07T15:35:32.173Z,5.80
2019-06-07T15:38:01.242Z,4.03
2019-06-07T15:40:31.008Z,1.10
2019-06-07T15:43:00.152Z,2.90
2019-06-07T15:45:29.355Z,9.10
2019-06-07T15:47:58.383Z,2.27
2019-06-07T15:50:28.882Z,1.60
2019-06-07T15:52:57.678Z,4.03
2019-06-07T15:55:26.440Z,1.27
2019-06-07T15:57:55.247Z,1.60
2019-06-07T16:00:24.765Z,8.63
2019-06-07T16:02:53.570Z,1.93
2019-06-07T16:05:22.540Z,2.40
2019-06-07T16:07:51.346Z,2.63
2019-06-07T16:10:20.752Z,17.97
2019-06-07T16:13:00.140Z,3.10
2019-06-07T16:15:21.458Z,3.70
2019-06-07T16:17:50.316Z,1.70
2019-06-07T16:20:19.961Z,3.57
2019-06-07T16:22:48.769Z,1.83
2019-06-07T16:25:18.208Z,2.37
2019-06-07T16:27:47.028Z,7.90
2019-06-07T16:30:16.474Z,1.63
2019-06-07T16:32:46.326Z,4.00
2019-06-07T16:35:15.792Z,3.83
2019-06-07T16:37:46.943Z,4.77
2019-06-07T16:40:15.832Z,3.00
2019-06-07T16:42:45.194Z,1.90
2019-06-07T16:45:16.298Z,5.97
2019-06-07T16:47:47.582Z,3.20
2019-06-07T16:50:16.655Z,2.03
2019-06-07T16:52:46.616Z,2.80
2019-06-07T16:55:16.125Z,2.67
2019-06-07T16:57:45.263Z,2.50
2019-06-07T17:00:15.391Z,2.43
2019-06-07T17:02:44.957Z,2.20
2019-06-07T17:05:14.880Z,2.20
2019-06-07T17:07:44.812Z,3.37
2019-06-07T17:10:14.730Z,9.30
2019-06-07T17:12:44.829Z,4.97
2019-06-07T17:15:16.134Z,10.60
2019-06-07T17:17:45.270Z,5.20
2019-06-07T17:20:14.188Z,4.83
2019-06-07T17:22:44.057Z,3.80
2019-06-07T17:25:15.581Z,6.73
2019-06-07T17:27:46.174Z,4.00
2019-06-07T17:30:15.588Z,4.77
2019-06-07T17:32:55.161Z,4.90
2019-06-07T17:35:16.977Z,11.33
2019-06-07T17:37:47.583Z,3.50
2019-06-07T17:40:19.312Z,4.70
2019-06-07T17:42:49.079Z,3.00
2019-06-07T17:45:18.469Z,3.47
2019-06-07T17:47:47.777Z,1.93
2019-06-07T17:50:17.188Z,4.70
2019-06-07T17:52:46.096Z,4.27
2019-06-07T17:55:16.637Z,1.80
2019-06-07T17:57:46.553Z,9.00
2019-06-07T18:00:33.539Z,6.70
2019-06-07T18:02:47.077Z,3.57
2019-06-07T18:05:16.574Z,3.73
2019-06-07T18:07:49.688Z,2.53
2019-06-07T18:10:21.415Z,2.03
2019-06-07T18:12:50.274Z,2.03
2019-06-07T18:15:22.018Z,3.03
2019-06-07T18:17:52.782Z,1.57
2019-06-07T18:20:21.803Z,5.33
2019-06-07T18:22:51.275Z,1.10
2019-06-07T18:25:20.232Z,2.63
2019-06-07T18:27:50.555Z,2.63
2019-06-07T18:30:20.180Z,3.90
2019-06-07T18:32:48.946Z,1.00
2019-06-07T18:35:17.764Z,2.70
2019-06-07T18:37:46.979Z,1.03
2019-06-07T18:40:20.351Z,3.37
2019-06-07T18:42:49.198Z,1.27
2019-06-07T18:45:18.159Z,3.23
2019-06-07T18:47:47.832Z,2.70
2019-06-07T18:50:16.955Z,5.30
2019-06-07T18:52:46.708Z,3.73
2019-06-07T18:55:16.706Z,5.40
2019-06-07T18:57:48.044Z,9.50
2019-06-07T19:00:19.322Z,1.03
2019-06-07T19:02:49.657Z,1.10
2019-06-07T19:05:19.284Z,9.50
2019-06-07T19:07:48.909Z,1.00
2019-06-07T19:10:18.989Z,1.33
2019-06-07T19:12:48.959Z,0.90
2019-06-07T19:15:18.663Z,9.20
2019-06-07T19:17:47.822Z,1.50
2019-06-07T19:20:19.022Z,1.00
2019-06-07T19:22:47.865Z,1.00
2019-06-07T19:25:21.586Z,3.27
2019-06-07T19:27:50.794Z,1.13
2019-06-07T19:30:20.762Z,1.77
2019-06-07T19:32:51.206Z,1.00
2019-06-07T19:35:20.634Z,4.83
2019-06-07T19:37:51.743Z,2.80
2019-06-07T19:40:21.781Z,4.40
2019-06-07T19:42:52.063Z,1.33
2019-06-07T19:45:30.827Z,1.00
2019-06-07T19:47:52.387Z,1.10
2019-06-07T19:50:21.794Z,1.60
2019-06-07T19:52:50.688Z,0.90
2019-06-07T19:55:20.891Z,1.50
2019-06-07T19:57:50.261Z,1.00
2019-06-07T20:00:19.658Z,0.90
2019-06-07T20:02:48.488Z,1.50
2019-06-07T20:05:17.490Z,1.83
2019-06-07T20:07:46.322Z,3.17
2019-06-07T20:10:15.879Z,0.83
2019-06-07T20:12:45.599Z,9.50
2019-06-07T20:15:27.737Z,2.37
2019-06-07T20:17:46.622Z,1.00
2019-06-07T20:20:15.818Z,1.20
2019-06-07T20:22:44.828Z,1.73
2019-06-07T20:25:14.093Z,1.53
2019-06-07T20:27:44.677Z,2.63
2019-06-07T20:30:14.859Z,2.33
2019-06-07T20:32:43.655Z,3.00
2019-06-07T20:35:12.720Z,3.53
2019-06-07T20:37:42.123Z,4.93
2019-06-07T20:40:23.382Z,2.47
2019-06-07T20:42:44.344Z,0.97
2019-06-07T20:45:13.539Z,0.90
2019-06-07T20:47:42.419Z,4.00
2019-06-07T20:50:11.833Z,3.30
2019-06-07T20:52:40.680Z,1.50
2019-06-07T20:55:09.903Z,1.00
2019-06-07T20:57:38.924Z,4.40
2019-06-07T21:00:16.761Z,1.83
2019-06-07T21:02:40.488Z,1.30
2019-06-07T21:05:10.600Z,1.27
2019-06-07T21:07:39.412Z,1.10
2019-06-07T21:10:10.607Z,2.30
2019-06-07T21:12:39.878Z,1.00
2019-06-07T21:15:14.096Z,3.87
2019-06-07T21:17:41.093Z,0.80
2019-06-07T21:20:14.270Z,1.00
2019-06-07T21:22:41.609Z,1.20
2019-06-07T21:25:11.699Z,1.50
2019-06-07T21:27:40.630Z,0.90
2019-06-07T21:30:11.735Z,0.90
2019-06-07T21:32:41.007Z,0.90
2019-06-07T21:35:10.412Z,4.03
2019-06-07T21:37:39.359Z,0.90
2019-06-07T21:40:10.143Z,1.00
2019-06-07T21:42:39.241Z,1.50
2019-06-07T21:45:09.802Z,1.23
2019-06-07T21:47:39.329Z,2.50
2019-06-07T21:50:08.985Z,1.23
2019-06-07T21:52:37.871Z,7.40
2019-06-07T21:55:07.350Z,0.90
2019-06-07T21:57:37.053Z,1.40
2019-06-07T22:00:09.182Z,1.63
2019-06-07T22:02:38.363Z,6.23
2019-06-07T22:05:09.597Z,1.53
2019-06-07T22:07:38.701Z,1.17
2019-06-07T22:10:08.209Z,4.83
2019-06-07T22:12:37.118Z,3.80
2019-06-07T22:15:27.354Z,2.40
2019-06-07T22:17:38.648Z,2.07
2019-06-07T22:20:08.658Z,1.10
2019-06-07T22:22:37.653Z,2.30
2019-06-07T22:25:09.253Z,1.37
2019-06-07T22:27:38.236Z,6.43
2019-06-07T22:30:08.809Z,1.67
2019-06-07T22:32:37.607Z,1.13
2019-06-07T22:35:07.264Z,2.60
2019-06-07T22:37:36.138Z,1.00
2019-06-07T22:40:08.335Z,3.50
2019-06-07T22:42:38.002Z,4.20
2019-06-07T22:45:08.091Z,1.20
2019-06-07T22:47:37.431Z,1.00
2019-06-07T22:50:11.015Z,1.20
2019-06-07T22:52:41.071Z,2.77
2019-06-07T22:55:12.039Z,1.73
2019-06-07T22:57:43.128Z,1.93
2019-06-07T23:00:14.348Z,2.53
2019-06-07T23:02:43.088Z,0.80
2019-06-07T23:05:12.753Z,1.70
2019-06-07T23:07:41.728Z,4.10
2019-06-07T23:10:11.331Z,1.10
2019-06-07T23:12:40.226Z,1.40
2019-06-07T23:15:09.431Z,1.00
2019-06-07T23:17:38.602Z,1.20
2019-06-07T23:20:09.585Z,5.70
2019-06-07T23:22:38.581Z,1.30
2019-06-07T23:25:09.936Z,2.33
2019-06-07T23:27:38.887Z,1.20
2019-06-07T23:30:10.586Z,4.03
2019-06-07T23:32:39.562Z,2.40
2019-06-07T23:35:08.608Z,1.07
2019-06-07T23:37:37.509Z,2.47
2019-06-07T23:40:06.800Z,3.00
2019-06-07T23:42:35.633Z,2.03
2019-06-07T23:45:05.009Z,1.10
2019-06-07T23:47:33.736Z,1.87
2019-06-07T23:50:02.590Z,5.57
2019-06-07T23:52:31.357Z,2.00
2019-06-07T23:55:00.084Z,1.20
2019-06-07T23:57:28.835Z,4.67
2019-06-07T23:59:57.620Z,4.33
